Time;durP1;ratioP1;P1;durP2;ratioP2;P2;SDS_P1;SDS_P2;PMS_P1;PMS_P2;Temp;Humidity;BMP_temperature;BMP_pressure;BME280_temperature;BME280_humidity;BME280_pressure;Samples;Min_cycle;Max_cycle;Signal;HPM_P1;HPM_P2
2022/04/25 00:00:35;;;;;;;23.00;16.97;;;29.10;90.50;;;;;;1896558;75;21216;-83
2022/04/25 00:03:06;;;;;;;22.58;16.93;;;29.10;90.50;;;;;;1886246;75;21153;-82
2022/04/25 00:05:38;;;;;;;24.37;17.07;;;29.20;90.60;;;;;;1882580;75;21082;-73
2022/04/25 00:08:09;;;;;;;22.32;17.07;;;29.20;90.40;;;;;;1899979;75;21177;-74
2022/04/25 00:10:42;;;;;;;24.25;17.73;;;29.20;90.60;;;;;;1912965;74;21109;-72
2022/04/25 00:13:14;;;;;;;25.40;16.57;;;29.20;90.60;;;;;;1904912;75;21130;-73
2022/04/25 00:15:45;;;;;;;22.98;16.37;;;29.30;90.70;;;;;;1900130;75;21140;-73
2022/04/25 00:18:16;;;;;;;21.68;16.27;;;29.30;90.50;;;;;;1896720;75;21070;-73
2022/04/25 00:20:46;;;;;;;21.90;17.27;;;29.30;90.20;;;;;;1900738;75;21200;-75
2022/04/25 00:23:18;;;;;;;23.35;17.52;;;29.30;90.50;;;;;;1909598;75;21608;-75
2022/04/25 00:25:49;;;;;;;20.70;16.20;;;29.40;90.40;;;;;;1909834;75;21122;-75
2022/04/25 00:28:20;;;;;;;20.45;15.95;;;29.40;90.50;;;;;;1905560;75;21584;-75
2022/04/25 00:30:51;;;;;;;24.00;17.52;;;29.40;90.50;;;;;;1896906;75;21067;-76
2022/04/25 00:33:22;;;;;;;23.32;17.07;;;29.50;90.40;;;;;;1897148;75;21074;-75
2022/04/25 00:35:54;;;;;;;24.35;17.65;;;29.50;90.20;;;;;;1888309;75;21582;-76
2022/04/25 00:38:25;;;;;;;24.18;16.62;;;29.60;90.00;;;;;;1903599;75;21110;-73
2022/04/25 00:40:56;;;;;;;21.65;16.73;;;29.70;90.20;;;;;;1894185;75;21535;-74
2022/04/25 00:43:27;;;;;;;24.75;17.82;;;29.70;89.80;;;;;;1883286;75;21558;-74
2022/04/25 00:45:59;;;;;;;23.65;17.35;;;29.80;89.90;;;;;;1893313;75;21593;-73
2022/04/25 00:48:30;;;;;;;25.88;18.25;;;29.80;90.00;;;;;;1896001;75;21190;-73
2022/04/25 00:51:01;;;;;;;24.52;17.12;;;29.90;89.90;;;;;;1888626;75;21067;-72
2022/04/25 00:53:31;;;;;;;26.75;18.73;;;30.00;89.20;;;;;;1887783;75;21570;-73
2022/04/25 00:56:02;;;;;;;29.32;18.75;;;30.00;89.10;;;;;;1891996;75;21181;-76
2022/04/25 00:58:33;;;;;;;25.40;18.75;;;30.10;88.70;;;;;;1902484;75;21636;-74
2022/04/25 01:01:04;;;;;;;23.77;18.85;;;30.10;89.30;;;;;;1907502;75;21543;-74
2022/04/25 01:03:35;;;;;;;22.25;17.90;;;30.10;89.00;;;;;;1901765;75;21071;-74
2022/04/25 01:06:06;;;;;;;23.22;17.48;;;30.10;88.80;;;;;;1890887;75;21087;-73
2022/04/25 01:08:37;;;;;;;24.82;18.17;;;30.20;88.90;;;;;;1902899;75;21625;-74
2022/04/25 01:11:08;;;;;;;22.05;16.65;;;30.20;88.70;;;;;;1909580;75;21164;-73
2022/04/25 01:13:39;;;;;;;24.23;18.07;;;30.30;88.60;;;;;;1902694;75;21597;-73
2022/04/25 01:16:10;;;;;;;22.93;17.17;;;30.30;88.30;;;;;;1904917;75;21087;-73
2022/04/25 01:18:43;;;;;;;25.02;16.97;;;30.40;87.60;;;;;;1905746;75;21170;-74
2022/04/25 01:21:16;;;;;;;20.10;16.45;;;30.50;87.70;;;;;;1905906;75;21133;-74
2022/04/25 01:28:53;;;;;;;22.15;17.57;;;30.70;86.10;;;;;;1895153;74;21593;-74
2022/04/25 01:31:24;;;;;;;20.80;16.12;;;30.80;86.00;;;;;;1886043;75;21071;-74
2022/04/25 01:33:55;;;;;;;19.25;15.60;;;30.80;85.40;;;;;;1885828;75;21141;-74
2022/04/25 01:36:26;;;;;;;21.52;15.88;;;30.90;85.10;;;;;;1890526;75;21071;-74
2022/04/25 01:38:57;;;;;;;22.60;17.05;;;31.00;84.90;;;;;;1883853;75;21474;-74
2022/04/25 01:41:28;;;;;;;19.25;16.17;;;31.10;83.70;;;;;;1885969;75;21090;-74
2022/04/25 01:43:59;;;;;;;21.87;16.97;;;31.20;83.90;;;;;;1892370;75;21543;-74
2022/04/25 01:46:34;;;;;;;23.98;16.55;;;31.20;83.40;;;;;;1884115;75;21130;-73
2022/04/25 01:49:06;;;;;;;25.97;17.37;;;31.30;83.00;;;;;;1890226;75;21601;-74
2022/04/25 01:51:40;;;;;;;22.42;17.05;;;31.30;83.40;;;;;;1900137;75;21115;-75
2022/04/25 01:54:11;;;;;;;25.17;17.30;;;31.50;83.40;;;;;;1888691;75;21515;-75
2022/04/25 01:57:02;;;;;;;24.12;16.95;;;31.50;83.20;;;;;;1888968;75;21133;-76
2022/04/25 01:59:34;;;;;;;24.60;16.93;;;31.70;82.80;;;;;;1901765;74;21234;-73
2022/04/25 02:02:06;;;;;;;21.93;15.80;;;31.80;82.00;;;;;;1912426;74;21169;-74
2022/04/25 02:04:39;;;;;;;22.25;16.60;;;31.90;81.70;;;;;;1884668;74;21127;-74
2022/04/25 02:07:11;;;;;;;20.32;15.93;;;32.00;81.40;;;;;;1915472;74;21201;-73
2022/04/25 02:09:43;;;;;;;24.07;16.17;;;32.10;81.30;;;;;;1918136;74;21625;-73
2022/04/25 02:12:14;;;;;;;17.85;14.70;;;32.30;81.10;;;;;;1901648;74;21095;-73
2022/04/25 02:14:46;;;;;;;20.10;15.80;;;32.40;81.00;;;;;;1915275;74;21098;-74
2022/04/25 02:17:18;;;;;;;22.00;15.10;;;32.50;79.90;;;;;;1907359;74;21499;-73
2022/04/25 02:19:49;;;;;;;22.55;15.20;;;32.60;79.70;;;;;;1918438;74;21185;-73
2022/04/25 02:22:20;;;;;;;20.97;14.50;;;32.70;78.80;;;;;;1908308;74;21676;-74
2022/04/25 02:24:50;;;;;;;24.85;15.53;;;32.80;78.00;;;;;;1939760;73;21518;-73
2022/04/25 02:27:22;;;;;;;21.02;15.75;;;32.90;77.10;;;;;;1944879;73;21526;-74
2022/04/25 02:29:58;;;;;;;25.12;15.83;;;33.00;76.90;;;;;;1941613;73;21690;-72
2022/04/25 02:32:30;;;;;;;23.75;15.95;;;33.10;76.40;;;;;;1944782;72;21819;-73
2022/04/25 02:35:00;;;;;;;18.70;15.60;;;33.20;75.90;;;;;;1942313;73;21545;-72
2022/04/25 02:37:31;;;;;;;19.60;14.47;;;33.30;75.10;;;;;;1944178;73;21175;-72
2022/04/25 02:40:02;;;;;;;16.82;13.55;;;33.40;73.70;;;;;;1939797;73;21702;-73
2022/04/25 02:42:33;;;;;;;22.42;13.95;;;33.50;72.70;;;;;;1944952;73;21058;-73
2022/04/25 02:45:07;;;;;;;22.05;14.05;;;33.60;71.90;;;;;;1939901;72;21168;-72
2022/04/25 02:47:39;;;;;;;20.72;13.58;;;33.70;71.00;;;;;;1944146;73;21153;-73
2022/04/25 02:50:11;;;;;;;17.50;12.50;;;33.90;75.00;;;;;;1957228;73;21611;-72
2022/04/25 02:52:42;;;;;;;17.85;12.23;;;33.70;70.50;;;;;;1933742;73;21121;-73
2022/04/25 02:55:15;;;;;;;19.35;12.55;;;33.80;70.20;;;;;;1949926;72;21135;-73
2022/04/25 02:57:46;;;;;;;16.85;12.85;;;34.00;69.80;;;;;;1944080;72;21155;-73
2022/04/25 03:00:20;;;;;;;15.90;12.50;;;34.10;69.70;;;;;;1944864;72;21082;-73
2022/04/25 03:02:51;;;;;;;17.67;11.55;;;34.10;69.40;;;;;;1950058;72;21123;-73
2022/04/25 03:05:22;;;;;;;17.20;11.97;;;34.20;67.90;;;;;;1948772;72;21120;-74
2022/04/25 03:07:54;;;;;;;17.75;13.48;;;34.40;67.50;;;;;;1953330;72;21095;-74
2022/04/25 03:10:24;;;;;;;19.77;12.98;;;34.50;68.10;;;;;;1949698;72;21062;-74
2022/04/25 03:12:55;;;;;;;17.60;12.75;;;34.60;67.40;;;;;;1956787;72;21089;-73
2022/04/25 03:15:27;;;;;;;15.88;12.07;;;34.70;67.40;;;;;;1931907;72;21542;-71
2022/04/25 03:17:58;;;;;;;18.92;12.53;;;34.80;66.60;;;;;;1925806;72;21254;-73
2022/04/25 03:20:31;;;;;;;16.67;13.45;;;34.80;64.80;;;;;;1899574;75;21800;-74
2022/04/25 03:23:05;;;;;;;15.63;12.15;;;34.80;66.00;;;;;;1930925;73;21062;-73
2022/04/25 03:25:38;;;;;;;18.15;11.97;;;34.80;65.40;;;;;;1929044;73;21104;-73
2022/04/25 03:28:10;;;;;;;17.10;11.57;;;34.80;64.70;;;;;;1928605;73;21738;-74
2022/04/25 03:30:42;;;;;;;17.77;10.50;;;34.90;64.40;;;;;;1944677;72;21058;-73
2022/04/25 03:33:13;;;;;;;15.30;11.18;;;35.00;63.60;;;;;;1928519;72;21203;-73
2022/04/25 03:35:48;;;;;;;13.08;10.70;;;35.10;63.80;;;;;;1939013;72;21058;-74
2022/04/25 03:38:19;;;;;;;13.35;11.00;;;35.20;62.60;;;;;;1931670;72;21572;-73
2022/04/25 03:40:51;;;;;;;14.70;10.93;;;35.30;62.80;;;;;;1933819;73;21632;-73
2022/04/25 03:43:24;;;;;;;14.40;11.63;;;35.40;61.90;;;;;;1936628;72;21048;-73
2022/04/25 03:45:55;;;;;;;17.20;10.72;;;35.50;60.60;;;;;;1934121;72;21171;-73
2022/04/25 03:48:27;;;;;;;13.78;10.40;;;35.60;60.60;;;;;;1945811;73;21619;-73
2022/04/25 03:50:58;;;;;;;14.23;10.75;;;35.70;61.10;;;;;;1951023;73;21666;-73
2022/04/25 03:53:29;;;;;;;16.85;11.25;;;35.80;60.20;;;;;;1946154;73;21182;-72
2022/04/25 03:58:35;;;;;;;14.45;11.05;;;35.80;59.90;;;;;;1936860;73;21108;-73
2022/04/25 04:01:06;;;;;;;14.15;11.33;;;35.80;61.00;;;;;;1948084;73;21125;-73
2022/04/25 04:03:37;;;;;;;14.10;10.90;;;;;;;;;;1928576;73;21139;-74
2022/04/25 04:06:11;;;;;;;14.28;10.43;;;35.90;59.70;;;;;;1937567;73;21119;-73
2022/04/25 04:08:40;;;;;;;13.62;10.85;;;36.00;59.60;;;;;;1936777;73;21168;-73
2022/04/25 04:11:11;;;;;;;13.35;10.65;;;36.10;59.60;;;;;;1896226;75;21119;-72
2022/04/25 04:13:42;;;;;;;14.15;11.40;;;36.10;58.60;;;;;;1943775;72;21066;-74
2022/04/25 04:16:14;;;;;;;14.55;10.53;;;36.20;58.50;;;;;;1931340;73;21089;-72
2022/04/25 04:18:47;;;;;;;18.62;10.45;;;36.10;57.90;;;;;;1923866;73;21533;-73
2022/04/25 04:21:17;;;;;;;12.78;10.15;;;36.00;58.40;;;;;;1937243;73;21112;-73
2022/04/25 04:23:50;;;;;;;15.18;9.88;;;35.90;59.10;;;;;;1928941;72;21137;-74
2022/04/25 04:26:21;;;;;;;11.30;9.28;;;35.90;58.30;;;;;;1940457;73;21069;-75
2022/04/25 04:28:53;;;;;;;12.88;10.28;;;35.90;57.40;;;;;;1940980;72;21164;-74
2022/04/25 04:31:25;;;;;;;10.93;9.80;;;35.90;57.30;;;;;;1940638;72;21542;-73
2022/04/25 04:34:00;;;;;;;13.08;10.03;;;35.80;56.80;;;;;;1926210;73;21077;-74
2022/04/25 04:36:32;;;;;;;12.40;9.93;;;35.80;57.10;;;;;;1930552;73;22523;-74
2022/04/25 04:39:03;;;;;;;11.00;9.33;;;35.60;57.20;;;;;;1926511;73;21609;-74
2022/04/25 04:41:34;;;;;;;13.38;9.53;;;35.60;57.80;;;;;;1949042;73;21613;-73
2022/04/25 04:44:05;;;;;;;10.93;9.30;;;35.60;57.20;;;;;;1944049;73;21214;-72
2022/04/25 04:46:36;;;;;;;10.48;9.23;;;35.80;57.70;;;;;;1949253;72;21164;-74
2022/04/25 04:49:07;;;;;;;12.82;8.70;;;35.90;56.90;;;;;;1944939;73;21568;-73
2022/04/25 04:51:38;;;;;;;13.85;9.75;;;35.80;57.00;;;;;;1923161;73;21662;-72
2022/04/25 04:54:09;;;;;;;13.62;9.68;;;35.80;58.20;;;;;;1935993;73;21070;-72
2022/04/25 04:56:40;;;;;;;13.35;10.28;;;35.70;57.90;;;;;;1919574;73;21068;-72
2022/04/25 04:59:11;;;;;;;11.75;9.50;;;35.50;58.60;;;;;;1918967;73;22878;-72
2022/04/25 05:01:43;;;;;;;13.48;9.93;;;35.40;59.10;;;;;;1925376;73;21176;-72
2022/04/25 05:04:14;;;;;;;13.75;9.00;;;35.40;58.90;;;;;;1934052;73;21136;-72
2022/04/25 05:06:45;;;;;;;12.20;9.38;;;35.40;58.60;;;;;;1941689;73;21127;-72
2022/04/25 05:09:16;;;;;;;15.70;10.15;;;35.30;58.70;;;;;;1921753;73;21184;-72
2022/04/25 05:11:47;;;;;;;13.25;10.05;;;35.20;59.00;;;;;;1941143;73;21129;-72
2022/04/25 05:14:18;;;;;;;11.33;9.78;;;35.10;59.60;;;;;;1947797;73;21569;-73
2022/04/25 05:16:50;;;;;;;13.58;10.38;;;35.00;60.20;;;;;;1936996;73;21533;-72
2022/04/25 05:19:21;;;;;;;15.38;10.63;;;35.00;60.00;;;;;;1937941;73;21514;-71
2022/04/25 05:21:52;;;;;;;13.93;10.35;;;35.00;60.30;;;;;;1951685;73;21066;-72
2022/04/25 05:24:23;;;;;;;14.95;10.43;;;34.90;59.80;;;;;;1930770;72;21069;-72
2022/04/25 05:26:54;;;;;;;15.00;10.48;;;34.90;59.80;;;;;;1941086;73;21045;-72
2022/04/25 05:29:25;;;;;;;13.83;10.88;;;34.90;60.10;;;;;;1930221;73;21172;-72
2022/04/25 05:31:56;;;;;;;11.65;9.88;;;34.90;60.50;;;;;;1952538;72;21506;-72
2022/04/25 05:34:28;;;;;;;10.75;9.25;;;34.80;60.60;;;;;;1927708;73;21100;-73
2022/04/25 05:37:00;;;;;;;14.00;9.33;;;34.80;60.20;;;;;;1935188;73;21466;-73
2022/04/25 05:39:32;;;;;;;12.95;9.65;;;34.70;60.00;;;;;;1937744;73;21618;-74
2022/04/25 05:42:06;;;;;;;16.17;10.00;;;34.70;60.40;;;;;;1926410;73;21142;-72
2022/04/25 05:44:37;;;;;;;14.87;10.72;;;34.70;59.80;;;;;;1921703;73;21074;-72
2022/04/25 05:47:11;;;;;;;16.12;11.38;;;34.70;62.70;;;;;;1929465;73;21186;-73
2022/04/25 05:52:33;;;;;;;15.60;11.95;;;34.80;65.90;;;;;;1950037;72;21147;-73
2022/04/25 05:55:07;;;;;;;20.40;11.88;;;34.80;65.80;;;;;;1868611;75;21596;-73
2022/04/25 05:57:40;;;;;;;16.67;11.50;;;34.80;66.00;;;;;;1946289;72;21469;-72
2022/04/25 06:00:14;;;;;;;18.42;11.80;;;34.80;64.90;;;;;;1941281;72;21639;-72
2022/04/25 06:02:49;;;;;;;17.30;11.50;;;34.70;65.60;;;;;;1939172;73;21572;-73
2022/04/25 06:05:19;;;;;;;15.65;11.45;;;34.70;65.70;;;;;;1954137;73;21053;-72
2022/04/25 06:07:51;;;;;;;19.80;11.00;;;34.50;65.60;;;;;;1931932;73;21889;-71
2022/04/25 06:10:25;;;;;;;13.45;10.58;;;34.40;66.10;;;;;;1939956;73;21065;-72
2022/04/25 06:12:57;;;;;;;13.75;10.43;;;34.30;66.40;;;;;;1941921;73;21481;-72
2022/04/25 06:15:29;;;;;;;13.53;11.05;;;34.20;66.60;;;;;;1942511;73;21382;-72
2022/04/25 06:18:00;;;;;;;20.82;11.08;;;34.00;67.00;;;;;;1938486;72;21073;-74
2022/04/25 06:20:31;;;;;;;13.15;10.10;;;33.90;67.40;;;;;;1942241;73;21144;-72
2022/04/25 06:23:02;;;;;;;15.63;10.75;;;33.90;67.20;;;;;;1929363;73;21066;-72
2022/04/25 06:25:36;;;;;;;16.45;10.65;;;33.80;67.50;;;;;;1929709;73;21619;-73
2022/04/25 06:28:10;;;;;;;25.88;16.70;;;33.80;67.50;;;;;;1937096;73;21111;-72
2022/04/25 06:30:41;;;;;;;24.72;15.50;;;33.80;68.60;;;;;;1927648;73;21576;-73
2022/04/25 06:33:14;;;;;;;22.55;15.60;;;33.70;69.00;;;;;;1945497;73;21082;-72
2022/04/25 06:35:46;;;;;;;17.48;12.35;;;33.60;69.90;;;;;;1936561;73;21575;-72
2022/04/25 06:38:18;;;;;;;15.18;11.08;;;33.50;71.10;;;;;;1923346;73;21584;-73
2022/04/25 06:40:52;;;;;;;14.80;11.30;;;33.40;71.80;;;;;;1929607;73;21069;-74
2022/04/25 06:43:23;;;;;;;24.67;12.10;;;33.20;71.70;;;;;;1941985;73;21192;-74
2022/04/25 06:46:12;;;;;;;23.38;12.78;;;33.00;76.20;;;;;;1932091;73;21149;-74
2022/04/25 06:49:19;;;;;;;20.05;11.05;;;32.80;77.90;;;;;;1936419;73;21061;-75
2022/04/25 06:51:17;;;;;;;18.27;11.30;;;32.60;77.40;;;;;;1921164;73;21192;-74
2022/04/25 06:53:50;;;;;;;18.00;11.05;;;32.40;80.20;;;;;;1933172;73;21153;-74
2022/04/25 06:56:22;;;;;;;16.25;11.03;;;32.10;81.00;;;;;;1927867;72;21155;-75
2022/04/25 06:58:54;;;;;;;16.55;10.65;;;31.90;82.60;;;;;;1930051;73;21906;-72
2022/04/25 07:01:26;;;;;;;15.58;10.72;;;31.70;82.20;;;;;;1925181;73;21218;-76
2022/04/25 07:03:57;;;;;;;13.83;10.43;;;31.60;82.50;;;;;;1920870;72;21556;-76
2022/04/25 07:06:29;;;;;;;15.53;10.58;;;31.50;83.20;;;;;;1933024;73;21525;-73
2022/04/25 07:09:00;;;;;;;13.40;9.45;;;31.40;83.30;;;;;;1928026;72;21046;-74
2022/04/25 07:11:31;;;;;;;12.18;8.73;;;31.30;83.90;;;;;;1930223;73;21562;-74
2022/04/25 07:14:02;;;;;;;13.00;9.05;;;31.10;83.20;;;;;;1929472;73;21111;-76
2022/04/25 07:16:34;;;;;;;14.60;10.38;;;30.80;84.00;;;;;;1924381;73;21541;-75
2022/04/25 07:19:08;;;;;;;15.08;9.58;;;30.60;86.00;;;;;;1937921;73;21069;-73
2022/04/25 07:29:20;;;;;;;19.50;10.63;;;30.60;88.60;;;;;;1936215;73;21066;-74
2022/04/25 07:31:53;;;;;;;18.45;11.30;;;30.70;88.60;;;;;;1937549;73;21073;-74
2022/04/25 07:34:24;;;;;;;16.70;12.60;;;30.70;88.90;;;;;;1918322;73;21062;-76
2022/04/25 07:36:55;;;;;;;21.60;12.63;;;30.60;90.30;;;;;;1923376;73;21050;-74
2022/04/25 07:39:27;;;;;;;20.00;12.88;;;30.70;90.70;;;;;;1929663;72;21182;-72
2022/04/25 07:42:04;;;;;;;21.52;14.73;;;30.60;91.20;;;;;;1929687;73;21132;-73
2022/04/25 07:44:35;;;;;;;19.65;14.43;;;30.60;91.90;;;;;;1934954;73;21699;-71
2022/04/25 07:47:07;;;;;;;19.25;13.28;;;30.60;92.40;;;;;;1931792;73;21167;-73
2022/04/25 07:49:38;;;;;;;16.57;12.45;;;30.60;92.20;;;;;;1920129;73;21653;-72
2022/04/25 07:52:11;;;;;;;15.72;12.73;;;30.70;92.10;;;;;;1922566;73;21153;-73
2022/04/25 07:54:42;;;;;;;15.03;11.95;;;30.70;91.90;;;;;;1934662;72;21546;-74
2022/04/25 07:57:15;;;;;;;15.95;12.65;;;30.80;91.30;;;;;;1928844;72;21062;-72
2022/04/25 07:59:53;;;;;;;17.20;12.15;;;30.80;91.40;;;;;;1934327;73;21605;-73
2022/04/25 08:02:24;;;;;;;20.50;13.95;;;31.00;91.00;;;;;;1935069;73;21074;-73
2022/04/25 08:04:56;;;;;;;16.07;13.25;;;31.00;91.30;;;;;;1934569;73;21074;-73
2022/04/25 08:07:26;;;;;;;16.17;10.68;;;31.10;91.70;;;;;;1929843;73;21042;-72
2022/04/25 08:09:58;;;;;;;15.95;12.25;;;31.20;90.40;;;;;;1932520;73;21632;-71
2022/04/25 08:20:13;;;;;;;15.70;11.85;;;31.50;91.60;;;;;;1928692;72;21173;-72
2022/04/25 08:22:46;;;;;;;17.95;12.65;;;31.60;91.70;;;;;;1916488;73;21074;-73
2022/04/25 08:25:17;;;;;;;16.75;13.08;;;31.60;91.80;;;;;;1939684;73;21124;-73
2022/04/25 08:27:48;;;;;;;16.50;13.00;;;31.70;92.20;;;;;;1935410;72;21132;-73
2022/04/25 08:30:21;;;;;;;19.23;14.15;;;31.80;91.90;;;;;;1930793;73;21062;-73
2022/04/25 08:32:55;;;;;;;18.45;14.75;;;31.90;92.30;;;;;;1923417;73;21121;-72
2022/04/25 08:35:26;;;;;;;19.00;13.90;;;32.00;92.50;;;;;;1936330;72;21178;-74
2022/04/25 08:37:59;;;;;;;16.95;11.15;;;32.10;92.60;;;;;;1922517;72;21089;-72
2022/04/25 08:40:30;;;;;;;23.35;17.20;;;32.20;90.10;;;;;;1939805;73;21705;-73
2022/04/25 08:43:04;;;;;;;19.65;15.32;;;32.20;90.50;;;;;;1937279;72;21113;-73
2022/04/25 08:45:38;;;;;;;20.27;15.18;;;32.30;90.90;;;;;;1923173;73;21541;-72
2022/04/25 08:48:10;;;;;;;20.35;13.50;;;32.40;91.00;;;;;;1918570;73;21089;-74
2022/04/25 08:50:42;;;;;;;21.48;14.55;;;32.40;89.50;;;;;;1919532;73;21081;-73
2022/04/25 08:53:15;;;;;;;14.00;10.75;;;32.50;89.50;;;;;;1932139;73;21163;-72
2022/04/25 08:55:46;;;;;;;14.43;11.18;;;32.60;86.10;;;;;;1935662;72;21799;-73
2022/04/25 08:58:22;;;;;;;16.35;11.08;;;32.70;82.10;;;;;;1932590;72;21062;-70
2022/04/25 09:00:55;;;;;;;15.50;11.78;;;32.80;81.50;;;;;;1935904;73;21113;-71
2022/04/25 09:03:26;;;;;;;17.30;11.48;;;32.90;79.90;;;;;;1859476;75;21204;-71
2022/04/25 09:05:58;;;;;;;15.08;11.15;;;33.00;78.30;;;;;;1867370;76;21619;-73
2022/04/25 09:08:29;;;;;;;16.62;11.40;;;33.10;78.20;;;;;;1868016;74;21119;-72
2022/04/25 09:13:34;;;;;;;21.17;11.05;;;33.30;74.10;;;;;;1878526;76;21620;-73
2022/04/25 09:16:06;;;;;;;15.23;9.73;;;33.30;74.00;;;;;;1870178;76;21063;-73
2022/04/25 09:18:41;;;;;;;17.48;11.15;;;33.40;73.20;;;;;;1883715;75;21168;-72
2022/04/25 09:21:17;;;;;;;21.62;14.55;;;33.50;74.80;;;;;;1864478;76;21127;-72
2022/04/25 09:23:48;;;;;;;14.95;11.80;;;33.60;74.50;;;;;;1892553;75;21562;-70
2022/04/25 09:26:22;;;;;;;19.17;12.55;;;33.60;73.70;;;;;;1870910;76;21088;-72
2022/04/25 09:28:54;;;;;;;11.80;8.95;;;33.60;74.60;;;;;;1850375;75;22327;-72
2022/04/25 09:31:28;;;;;;;14.53;8.35;;;33.70;71.20;;;;;;1863588;76;21717;-73
2022/04/25 09:34:04;;;;;;;15.63;8.08;;;33.70;69.80;;;;;;1866279;76;21052;-73
2022/04/25 09:36:38;;;;;;;15.00;9.78;;;33.70;69.00;;;;;;1894823;75;21150;-85
2022/04/25 09:39:12;;;;;;;12.28;7.58;;;33.80;70.10;;;;;;1866336;75;21154;-83
2022/04/25 09:41:45;;;;;;;11.40;6.97;;;33.90;66.60;;;;;;1869694;75;21156;-85
2022/04/25 09:44:17;;;;;;;13.85;8.90;;;34.00;66.60;;;;;;1867025;76;21075;-85
2022/04/25 09:46:50;;;;;;;13.50;8.33;;;34.00;66.50;;;;;;1882614;76;21099;-85
2022/04/25 09:49:22;;;;;;;12.73;7.80;;;34.00;66.20;;;;;;1874917;76;21119;-86
2022/04/25 09:51:55;;;;;;;9.55;7.37;;;34.00;66.60;;;;;;1932685;72;21109;-85
2022/04/25 09:54:38;;;;;;;10.40;7.97;;;34.00;66.50;;;;;;1929833;73;21128;-84
2022/04/25 09:57:11;;;;;;;11.05;7.25;;;34.00;65.00;;;;;;1929554;72;21246;-83
2022/04/25 09:59:45;;;;;;;11.35;6.97;;;34.00;65.80;;;;;;1942365;73;21136;-86
2022/04/25 10:02:19;;;;;;;11.88;7.17;;;34.00;64.10;;;;;;1946358;73;21057;-86
2022/04/25 10:04:53;;;;;;;13.40;7.53;;;34.10;65.40;;;;;;1934969;73;21098;-86
2022/04/25 10:07:25;;;;;;;12.53;7.30;;;34.10;65.70;;;;;;1948353;73;21070;-83
2022/04/25 10:09:57;;;;;;;13.90;8.20;;;34.10;62.20;;;;;;1939979;73;21125;-85
2022/04/25 10:12:29;;;;;;;12.05;9.00;;;34.10;63.50;;;;;;1932370;73;21046;-85
2022/04/25 10:15:02;;;;;;;8.75;7.42;;;34.10;63.60;;;;;;1940682;73;21121;-85
2022/04/25 10:17:37;;;;;;;10.23;7.50;;;34.10;62.70;;;;;;1946700;73;21165;-84
2022/04/25 10:20:11;;;;;;;13.75;8.53;;;34.10;62.50;;;;;;1920335;73;21579;-87
2022/04/25 10:22:45;;;;;;;15.15;7.92;;;34.20;61.10;;;;;;1923996;73;21155;-86
2022/04/25 10:25:19;;;;;;;17.50;8.33;;;34.10;63.40;;;;;;1928314;73;21233;-87
2022/04/25 10:27:51;;;;;;;14.10;7.83;;;34.10;63.30;;;;;;1918306;73;21623;-84
2022/04/25 10:30:23;;;;;;;11.33;7.65;;;34.10;61.80;;;;;;1917808;73;21120;-84
2022/04/25 10:32:55;;;;;;;11.48;7.70;;;34.10;61.50;;;;;;1931020;73;21224;-84
2022/04/25 10:35:29;;;;;;;10.88;7.00;;;34.10;61.20;;;;;;1914288;73;21058;-85
2022/04/25 10:38:00;;;;;;;14.05;7.83;;;34.10;61.50;;;;;;1935813;73;21101;-86
2022/04/25 10:44:10;;;;;;;11.95;8.50;;;34.10;60.40;;;;;;1944630;73;21060;-85
2022/04/25 10:45:43;;;;;;;11.90;8.23;;;34.10;61.10;;;;;;1929573;73;21167;-84
2022/04/25 10:48:14;;;;;;;12.37;9.45;;;34.10;61.00;;;;;;1935433;73;21058;-83
2022/04/25 10:50:49;;;;;;;18.12;9.30;;;34.10;62.70;;;;;;1938551;73;21066;-84
2022/04/25 10:53:22;;;;;;;13.05;7.35;;;34.00;63.10;;;;;;1915666;74;21143;-86
2022/04/25 10:55:59;;;;;;;13.08;7.50;;;34.00;62.30;;;;;;1917155;73;21074;-85
2022/04/25 10:58:30;;;;;;;16.32;8.90;;;33.90;61.70;;;;;;1923277;73;21957;-84
2022/04/25 11:01:01;;;;;;;15.08;8.03;;;33.90;62.60;;;;;;1929249;73;21092;-85
2022/04/25 11:03:33;;;;;;;11.28;7.22;;;33.90;61.50;;;;;;1936089;73;21124;-82
2022/04/25 11:06:13;;;;;;;12.45;7.65;;;33.90;61.80;;;;;;1931653;73;21119;-85
2022/04/25 11:08:47;;;;;;;10.60;6.80;;;33.80;61.50;;;;;;1951575;73;21062;-85
2022/04/25 11:11:21;;;;;;;13.70;7.37;;;33.80;60.40;;;;;;1936529;73;21056;-85
2022/04/25 11:13:56;;;;;;;14.15;7.97;;;33.80;61.30;;;;;;1935795;73;21147;-84
2022/04/25 11:16:28;;;;;;;10.40;8.00;;;33.80;64.10;;;;;;1935931;73;21073;-84
2022/04/25 11:19:02;;;;;;;11.20;8.23;;;33.80;64.10;;;;;;1936315;73;21104;-85
2022/04/25 11:21:33;;;;;;;14.85;8.15;;;33.70;63.60;;;;;;1943492;73;21125;-84
2022/04/25 11:24:04;;;;;;;9.23;7.53;;;33.60;63.20;;;;;;1930996;73;21136;-84
2022/04/25 11:26:38;;;;;;;13.60;8.25;;;33.60;63.00;;;;;;1946510;73;21057;-83
2022/04/25 11:29:09;;;;;;;20.37;9.15;;;33.50;63.90;;;;;;1936094;73;21261;-83
2022/04/25 11:31:41;;;;;;;17.67;8.85;;;33.50;65.30;;;;;;1936210;73;21073;-84
2022/04/25 11:34:14;;;;;;;14.05;8.88;;;33.40;65.90;;;;;;1949545;73;21038;-83
2022/04/25 11:36:46;;;;;;;15.98;9.85;;;33.30;67.00;;;;;;1929718;73;21082;-83
2022/04/25 11:41:51;;;;;;;15.72;10.32;;;33.20;67.70;;;;;;1921963;74;21128;-84
2022/04/25 11:44:23;;;;;;;18.82;10.55;;;33.10;69.80;;;;;;1942343;73;21141;-84
2022/04/25 11:46:54;;;;;;;18.85;10.63;;;33.00;69.20;;;;;;1937392;72;21074;-85
2022/04/25 11:49:27;;;;;;;16.93;10.63;;;33.00;70.30;;;;;;1942227;73;21045;-85
2022/04/25 11:52:01;;;;;;;21.95;11.18;;;32.90;69.00;;;;;;1961919;72;21085;-83
2022/04/25 11:54:33;;;;;;;17.90;11.57;;;32.90;70.80;;;;;;1956577;72;21137;-82
2022/04/25 11:57:05;;;;;;;19.67;12.68;;;32.80;70.90;;;;;;1930417;73;21133;-84
2022/04/25 11:59:36;;;;;;;18.52;13.10;;;32.80;71.60;;;;;;1925781;73;21077;-82
2022/04/25 12:02:07;;;;;;;22.27;14.25;;;32.70;72.00;;;;;;1923367;75;21038;-84
2022/04/25 12:04:39;;;;;;;19.92;13.48;;;32.70;72.20;;;;;;1923676;73;21125;-84
2022/04/25 12:07:12;;;;;;;27.50;15.85;;;32.60;72.20;;;;;;1946129;73;21073;-83
2022/04/25 12:17:25;;;;;;;20.90;13.80;;;32.50;73.40;;;;;;1923849;73;20159;-85
2022/04/25 12:19:59;;;;;;;22.77;13.95;;;32.40;73.70;;;;;;1951634;73;21132;-85
2022/04/25 12:22:30;;;;;;;24.67;13.48;;;32.40;74.10;;;;;;1933341;73;21073;-84
2022/04/25 12:25:03;;;;;;;21.02;13.08;;;32.40;73.20;;;;;;1923636;73;21078;-82
2022/04/25 12:27:34;;;;;;;22.55;12.65;;;32.40;73.90;;;;;;1920799;74;21062;-82
2022/04/25 12:30:07;;;;;;;24.98;13.68;;;32.30;73.30;;;;;;1941763;73;21151;-84
2022/04/25 12:32:38;;;;;;;25.12;13.03;;;32.30;74.10;;;;;;1938275;72;21139;-84
2022/04/25 12:35:12;;;;;;;21.20;13.25;;;32.30;73.80;;;;;;1932106;73;21136;-85
2022/04/25 12:37:48;;;;;;;20.72;12.15;;;32.30;72.50;;;;;;1927983;72;21137;-84
2022/04/25 12:40:20;;;;;;;22.35;12.80;;;32.30;72.20;;;;;;1927828;73;21116;-85
2022/04/25 12:42:54;;;;;;;17.52;12.05;;;32.30;73.50;;;;;;1925204;73;21069;-85
2022/04/25 12:45:24;;;;;;;19.52;12.82;;;32.30;73.30;;;;;;1924120;73;21062;-84
2022/04/25 12:47:57;;;;;;;24.43;15.40;;;32.20;72.80;;;;;;1943480;73;21066;-85
2022/04/25 12:50:31;;;;;;;20.72;14.03;;;32.20;72.90;;;;;;1939069;73;21250;-85
2022/04/25 12:53:02;;;;;;;21.85;14.65;;;32.20;72.10;;;;;;1945632;73;21203;-84
2022/04/25 12:55:36;;;;;;;19.35;12.65;;;32.30;73.20;;;;;;1924804;73;21547;-84
2022/04/25 12:58:07;;;;;;;24.45;14.90;;;32.20;73.10;;;;;;1925686;73;21547;-85
2022/04/25 13:00:41;;;;;;;31.37;14.98;;;32.20;73.30;;;;;;1942654;73;21062;-84
2022/04/25 13:03:13;;;;;;;20.35;12.90;;;32.20;73.60;;;;;;1948657;73;21616;-84
2022/04/25 13:05:44;;;;;;;17.92;12.15;;;32.20;73.80;;;;;;1916007;73;21050;-83
2022/04/25 13:08:16;;;;;;;21.70;13.50;;;32.10;74.10;;;;;;1918465;73;21070;-85
2022/04/25 13:10:47;;;;;;;33.58;17.35;;;32.10;74.40;;;;;;1915728;75;21090;-84
2022/04/25 13:13:18;;;;;;;28.52;18.42;;;32.10;75.30;;;;;;1916615;73;21086;-85
2022/04/25 13:15:51;;;;;;;28.73;17.05;;;32.00;75.90;;;;;;1916816;73;21089;-86
2022/04/25 13:18:24;;;;;;;24.15;14.18;;;32.00;76.10;;;;;;1929769;73;21110;-84
2022/04/25 13:20:55;;;;;;;22.82;15.63;;;32.00;76.20;;;;;;1916000;74;21140;-83
2022/04/25 13:23:28;;;;;;;25.25;15.18;;;32.00;76.90;;;;;;1926492;73;21522;-86
2022/04/25 13:28:33;;;;;;;23.47;15.55;;;31.90;77.90;;;;;;1956668;73;27973;-84
2022/04/25 13:31:05;;;;;;;25.12;16.45;;;31.80;78.10;;;;;;1940143;73;21097;-83
2022/04/25 13:33:36;;;;;;;21.80;16.05;;;31.70;78.50;;;;;;1917540;73;21065;-83
2022/04/25 13:36:08;;;;;;;27.37;17.25;;;31.70;79.00;;;;;;1917713;73;21179;-83
2022/04/25 13:38:39;;;;;;;25.50;17.12;;;31.70;80.30;;;;;;1916250;75;21108;-84